Dell Rapids, South Dakota
Current Conditions -  °F | °C
As of 7:56 PM on Saturday 22 Nov 2014 (Local Time) from KFSD Reporting Station
Overcast Overcast  
Wind Chill: 32°   Ceiling: 25000
Heat Index: 40°   Visibility: 10mi
Dew Point: 37°   Wind: 14mph
Humidity: 89%   Direction: 190°S
Pressure: 29.46"   Gusts: NA
Location:  43.83°N, 96.71°W
Report Text: KFSD 230156Z 19012KT 10SM OVC250 04/03 A2946 RMK AO2 SLP990 T00440028
Loading
Personal Weather Stations






























Interactive Weather Map New forecast layout! Learn more

10-Day Weather Forecast

Advertisements
Track Severe Weather on mobile